Time;durP1;ratioP1;P1;durP2;ratioP2;P2;SDS_P1;SDS_P2;PMS_P1;PMS_P2;Temp;Humidity;BMP_temperature;BMP_pressure;BME280_temperature;BME280_humidity;BME280_pressure;Samples;Min_cycle;Max_cycle;Signal;HPM_P1;HPM_P2
2021/07/29 00:01:10;;;;;;;4.90;2.22;;;16.30;99.90;;;;;;5074976;28;20045;-83
2021/07/29 00:03:36;;;;;;;6.60;2.30;;;16.30;99.90;;;;;;5074763;28;20168;-86
2021/07/29 00:06:02;;;;;;;4.95;1.90;;;16.30;99.90;;;;;;5073608;28;20028;-85
2021/07/29 00:08:29;;;;;;;4.97;2.20;;;16.20;99.90;;;;;;5074848;28;20029;-84
2021/07/29 00:10:56;;;;;;;4.65;2.00;;;16.20;99.90;;;;;;5073568;28;20044;-85
2021/07/29 00:13:23;;;;;;;4.05;2.03;;;16.20;99.90;;;;;;5090345;28;20040;-85
2021/07/29 00:15:49;;;;;;;4.15;1.77;;;16.20;99.90;;;;;;5056625;28;20037;-84
2021/07/29 00:20:43;;;;;;;4.97;2.05;;;16.30;99.90;;;;;;5053385;28;20053;-85
2021/07/29 00:23:10;;;;;;;3.10;2.13;;;16.30;99.90;;;;;;5070077;28;20504;-85
2021/07/29 00:25:36;;;;;;;5.15;2.17;;;16.30;99.90;;;;;;5053166;28;20544;-83
2021/07/29 00:28:02;;;;;;;6.43;2.13;;;16.30;99.90;;;;;;5053847;28;20041;-85
2021/07/29 00:30:28;;;;;;;7.75;2.35;;;16.30;99.90;;;;;;5052843;28;20503;-86
2021/07/29 00:32:55;;;;;;;4.45;1.92;;;16.30;99.90;;;;;;5069484;28;20060;-86
2021/07/29 00:35:22;;;;;;;2.92;1.75;;;16.30;99.90;;;;;;5068954;28;20040;-86
2021/07/29 00:37:52;;;;;;;5.55;2.45;;;16.20;99.90;;;;;;5068481;28;20056;-86
2021/07/29 00:40:22;;;;;;;5.35;2.03;;;16.20;99.90;;;;;;5069055;28;20037;-85
2021/07/29 00:42:49;;;;;;;5.63;2.20;;;16.10;99.90;;;;;;5070047;28;20151;-84
2021/07/29 00:45:17;;;;;;;5.18;2.08;;;16.10;99.90;;;;;;5069890;28;20090;-85
2021/07/29 00:47:46;;;;;;;3.85;1.90;;;16.10;99.90;;;;;;5069740;28;20403;-85
2021/07/29 00:50:14;;;;;;;5.93;2.30;;;16.10;99.90;;;;;;5062716;28;20095;-85
2021/07/29 00:52:41;;;;;;;4.47;2.17;;;16.00;99.90;;;;;;5054611;28;20033;-86
2021/07/29 00:55:09;;;;;;;4.28;2.00;;;16.00;99.90;;;;;;5052998;28;20033;-86
2021/07/29 00:57:37;;;;;;;5.35;1.83;;;16.00;99.90;;;;;;5052789;28;20088;-85
2021/07/29 01:00:04;;;;;;;4.43;1.98;;;15.90;99.90;;;;;;5051944;28;20048;-85
2021/07/29 01:02:30;;;;;;;5.65;1.70;;;15.90;99.90;;;;;;5063848;28;20416;-84
2021/07/29 01:04:56;;;;;;;5.30;2.13;;;15.90;99.90;;;;;;5052928;28;20032;-85
2021/07/29 01:07:23;;;;;;;4.93;1.85;;;15.80;99.90;;;;;;5053923;28;20538;-85
2021/07/29 01:09:49;;;;;;;5.05;1.80;;;15.80;99.90;;;;;;5066660;28;20047;-85
2021/07/29 01:12:17;;;;;;;6.15;2.00;;;15.80;99.90;;;;;;5052853;28;20485;-85
2021/07/29 01:14:45;;;;;;;4.60;2.22;;;15.80;99.90;;;;;;5068679;28;20025;-83
2021/07/29 01:17:13;;;;;;;6.20;1.98;;;15.80;99.90;;;;;;5053219;28;20171;-84
2021/07/29 01:19:41;;;;;;;6.45;2.67;;;15.80;99.90;;;;;;5068404;28;20045;-84
2021/07/29 01:22:07;;;;;;;6.28;1.98;;;15.80;99.90;;;;;;5052781;28;20110;-85
2021/07/29 01:24:33;;;;;;;5.55;2.00;;;15.80;99.90;;;;;;5068969;28;20040;-85
2021/07/29 01:26:59;;;;;;;6.38;2.25;;;15.80;99.90;;;;;;5068235;28;20069;-85
2021/07/29 01:29:26;;;;;;;7.20;1.95;;;15.80;99.90;;;;;;5068215;28;20029;-85
2021/07/29 01:31:52;;;;;;;4.70;2.25;;;15.80;99.90;;;;;;5068199;28;20071;-85
2021/07/29 01:34:18;;;;;;;6.07;1.92;;;15.70;99.90;;;;;;5053041;28;20037;-85
2021/07/29 01:36:45;;;;;;;7.35;2.17;;;15.70;99.90;;;;;;5033813;28;20029;-84
2021/07/29 01:39:11;;;;;;;3.70;1.90;;;15.80;99.90;;;;;;5032777;28;20139;-84
2021/07/29 01:41:37;;;;;;;4.82;2.03;;;15.80;99.90;;;;;;5032020;28;20493;-85
2021/07/29 01:44:04;;;;;;;4.32;1.70;;;15.80;99.90;;;;;;5032099;28;20052;-84
2021/07/29 01:46:30;;;;;;;6.15;1.90;;;15.80;99.90;;;;;;5032058;28;20025;-85
2021/07/29 01:48:56;;;;;;;5.20;1.77;;;15.80;99.90;;;;;;5031749;28;20029;-85
2021/07/29 01:51:22;;;;;;;5.55;3.33;;;15.70;99.90;;;;;;5031519;28;20037;-86
2021/07/29 01:53:49;;;;;;;5.93;1.98;;;15.70;99.90;;;;;;5031865;28;20064;-86
2021/07/29 01:56:16;;;;;;;3.42;1.60;;;15.70;99.90;;;;;;5032720;28;20030;-85
2021/07/29 01:58:42;;;;;;;6.65;2.42;;;15.70;99.90;;;;;;5032851;28;20059;-84
2021/07/29 02:01:10;;;;;;;6.57;1.98;;;15.70;99.90;;;;;;5032768;28;20037;-86
2021/07/29 02:03:37;;;;;;;5.70;1.90;;;15.70;99.90;;;;;;5031703;28;20033;-86
2021/07/29 02:06:03;;;;;;;4.53;1.98;;;15.70;99.90;;;;;;5031740;28;20033;-85
2021/07/29 02:08:30;;;;;;;5.20;1.80;;;15.60;99.90;;;;;;5032626;28;20026;-86
2021/07/29 02:10:56;;;;;;;4.40;1.58;;;15.60;99.90;;;;;;5030090;28;20095;-85
2021/07/29 02:13:22;;;;;;;5.38;1.63;;;15.60;99.90;;;;;;5031332;28;20029;-85
2021/07/29 02:15:48;;;;;;;6.07;2.08;;;15.60;99.90;;;;;;5031155;28;20042;-85
2021/07/29 02:18:15;;;;;;;5.38;2.00;;;15.50;99.90;;;;;;5031399;28;20055;-85
2021/07/29 02:20:41;;;;;;;7.38;1.90;;;15.50;99.90;;;;;;5027840;28;20049;-84
2021/07/29 02:23:08;;;;;;;5.22;1.85;;;15.60;99.90;;;;;;5028104;28;20041;-86
2021/07/29 02:25:36;;;;;;;5.75;2.03;;;15.60;99.90;;;;;;5028215;28;20065;-87
2021/07/29 02:28:02;;;;;;;5.45;2.15;;;15.50;99.90;;;;;;5034728;28;20038;-85
2021/07/29 02:30:28;;;;;;;6.80;2.20;;;15.50;99.90;;;;;;5048090;28;20040;-84
2021/07/29 02:32:54;;;;;;;6.15;2.38;;;15.50;99.90;;;;;;5048080;28;20500;-86
2021/07/29 02:35:20;;;;;;;4.78;1.63;;;15.50;99.90;;;;;;5047499;28;20048;-87
2021/07/29 02:37:46;;;;;;;4.75;2.00;;;15.50;99.90;;;;;;5047979;28;20550;-87
2021/07/29 02:40:12;;;;;;;4.93;2.05;;;15.50;99.90;;;;;;5047838;28;20080;-86
2021/07/29 02:42:39;;;;;;;4.68;1.90;;;15.40;99.90;;;;;;5048147;28;20120;-85
2021/07/29 02:45:06;;;;;;;6.03;1.75;;;15.40;99.90;;;;;;5047869;28;20100;-85
2021/07/29 02:47:33;;;;;;;7.90;2.05;;;15.40;99.90;;;;;;5048156;28;20060;-84
2021/07/29 02:49:59;;;;;;;4.93;1.77;;;15.30;99.90;;;;;;5048089;28;20124;-85
2021/07/29 02:52:25;;;;;;;4.85;2.08;;;15.30;99.90;;;;;;5032559;28;20217;-87
2021/07/29 02:54:52;;;;;;;5.30;1.75;;;15.40;99.90;;;;;;5041185;28;20042;-87
2021/07/29 02:57:19;;;;;;;6.07;2.13;;;15.30;99.90;;;;;;5028210;28;20133;-87
2021/07/29 02:59:46;;;;;;;7.82;2.38;;;15.30;99.90;;;;;;5027643;28;20042;-86
2021/07/29 03:02:12;;;;;;;5.50;2.05;;;15.30;99.90;;;;;;5011208;28;20049;-86
2021/07/29 03:04:38;;;;;;;8.55;2.50;;;15.30;99.90;;;;;;5012128;28;20532;-86
2021/07/29 03:07:05;;;;;;;5.05;1.95;;;15.40;99.90;;;;;;5011387;28;20499;-88
2021/07/29 03:09:31;;;;;;;6.07;1.90;;;15.30;99.90;;;;;;5027534;28;20056;-88
2021/07/29 03:11:58;;;;;;;6.72;2.30;;;15.30;99.90;;;;;;5012705;28;20438;-88
2021/07/29 03:14:26;;;;;;;7.55;2.42;;;15.30;99.90;;;;;;5011104;28;20377;-87
2021/07/29 03:16:53;;;;;;;6.80;2.13;;;15.30;99.90;;;;;;5027735;28;20435;-88
2021/07/29 03:19:21;;;;;;;6.78;2.50;;;15.30;99.90;;;;;;5027366;28;20049;-87
2021/07/29 03:21:47;;;;;;;5.60;2.28;;;15.40;99.90;;;;;;5068587;28;20045;-88
2021/07/29 03:24:13;;;;;;;8.50;2.22;;;15.40;99.90;;;;;;5037959;28;20476;-87
2021/07/29 03:26:39;;;;;;;7.60;2.35;;;15.50;99.90;;;;;;5055537;28;20389;-87
2021/07/29 03:29:05;;;;;;;5.53;1.70;;;15.50;99.90;;;;;;5038247;28;20029;-87
2021/07/29 03:31:34;;;;;;;8.35;2.35;;;15.60;99.90;;;;;;5055738;28;20397;-87
2021/07/29 03:34:00;;;;;;;7.15;2.22;;;15.60;99.90;;;;;;5054795;28;20040;-87
2021/07/29 03:36:26;;;;;;;4.68;1.73;;;15.60;99.90;;;;;;5055621;28;20032;-87
2021/07/29 03:38:52;;;;;;;7.78;2.20;;;15.60;99.90;;;;;;5054131;28;20037;-86
2021/07/29 03:41:18;;;;;;;6.80;2.15;;;15.60;99.90;;;;;;5054410;28;20048;-86
2021/07/29 03:43:44;;;;;;;6.97;2.03;;;15.70;99.90;;;;;;5054670;28;20064;-88
2021/07/29 03:46:10;;;;;;;6.53;1.85;;;15.70;99.90;;;;;;5054457;28;20087;-87
2021/07/29 03:48:36;;;;;;;7.45;2.25;;;15.70;99.90;;;;;;5053935;28;20038;-87
2021/07/29 03:51:02;;;;;;;6.03;2.20;;;15.70;99.90;;;;;;5070718;28;20083;-86
2021/07/29 03:53:28;;;;;;;7.60;1.85;;;15.70;99.90;;;;;;5054583;28;20076;-88
2021/07/29 03:55:56;;;;;;;6.15;2.45;;;15.70;99.90;;;;;;5071140;28;20049;-86
2021/07/29 03:58:22;;;;;;;11.43;2.40;;;15.70;99.90;;;;;;5055370;28;20436;-87
2021/07/29 04:00:49;;;;;;;9.38;2.53;;;15.70;99.90;;;;;;5055144;28;20083;-86
2021/07/29 04:03:15;;;;;;;5.63;2.03;;;15.70;99.90;;;;;;5037763;28;20037;-86
2021/07/29 04:05:41;;;;;;;8.38;2.00;;;15.70;99.90;;;;;;5054181;28;20064;-88
2021/07/29 04:08:09;;;;;;;8.00;2.20;;;15.80;99.90;;;;;;5053751;28;20064;-87
2021/07/29 04:10:35;;;;;;;7.40;2.30;;;15.80;99.90;;;;;;5053569;28;20127;-87
2021/07/29 04:13:03;;;;;;;5.55;2.15;;;15.80;99.90;;;;;;5054814;28;20075;-87
2021/07/29 04:15:32;;;;;;;6.07;2.08;;;15.80;99.90;;;;;;5053927;28;20416;-88
2021/07/29 04:17:58;;;;;;;8.23;2.35;;;15.80;99.90;;;;;;5053996;28;20033;-86
2021/07/29 04:20:24;;;;;;;8.90;3.05;;;15.80;99.90;;;;;;5049966;28;20055;-88
2021/07/29 04:22:50;;;;;;;9.13;2.13;;;15.80;99.90;;;;;;5050447;28;20055;-87
2021/07/29 04:25:16;;;;;;;7.15;2.40;;;15.80;99.90;;;;;;5067393;28;20041;-86
2021/07/29 04:27:43;;;;;;;12.85;2.60;;;15.80;99.90;;;;;;5050282;28;20032;-86
2021/07/29 04:30:09;;;;;;;11.05;2.30;;;15.90;99.90;;;;;;5034801;28;20076;-86
2021/07/29 04:32:36;;;;;;;7.72;2.50;;;15.80;99.90;;;;;;5050343;28;20080;-87
2021/07/29 04:35:03;;;;;;;5.82;2.45;;;15.90;99.90;;;;;;5046707;28;20034;-87
2021/07/29 04:37:29;;;;;;;8.88;2.35;;;15.80;99.90;;;;;;5041910;28;20532;-87
2021/07/29 04:39:55;;;;;;;10.25;3.03;;;15.70;99.90;;;;;;5025059;28;20029;-86
2021/07/29 04:42:21;;;;;;;8.25;2.63;;;15.70;99.90;;;;;;5044041;28;20443;-85
2021/07/29 04:44:47;;;;;;;7.63;2.78;;;15.60;99.90;;;;;;5041265;28;20032;-87
2021/07/29 04:47:16;;;;;;;8.70;2.33;;;15.60;99.90;;;;;;5037805;28;20034;-87
2021/07/29 04:49:42;;;;;;;13.05;2.63;;;15.60;99.90;;;;;;5053893;28;20082;-85
2021/07/29 04:52:09;;;;;;;9.45;3.05;;;15.60;99.90;;;;;;5045327;28;20060;-86
2021/07/29 04:54:36;;;;;;;7.80;2.63;;;15.60;99.90;;;;;;5022904;28;20106;-87
2021/07/29 04:57:03;;;;;;;5.35;2.20;;;15.60;99.90;;;;;;5039318;28;20107;-86
2021/07/29 04:59:29;;;;;;;11.02;2.80;;;15.50;99.90;;;;;;5047079;28;20031;-86
2021/07/29 05:01:58;;;;;;;7.13;2.30;;;15.50;99.90;;;;;;5017406;28;20151;-86
2021/07/29 05:04:25;;;;;;;9.20;2.55;;;15.50;99.90;;;;;;5045943;28;20041;-86
2021/07/29 05:06:51;;;;;;;10.60;3.42;;;15.50;99.90;;;;;;5049822;28;20044;-85
2021/07/29 05:09:18;;;;;;;8.13;2.58;;;15.50;99.90;;;;;;5037180;28;20382;-86
2021/07/29 05:11:44;;;;;;;10.13;3.08;;;15.60;99.90;;;;;;5030360;28;20041;-86
2021/07/29 05:14:10;;;;;;;9.25;2.92;;;15.70;99.90;;;;;;5048811;28;20036;-86
2021/07/29 05:16:37;;;;;;;11.30;3.35;;;15.70;99.90;;;;;;5050402;28;20047;-87
2021/07/29 05:19:03;;;;;;;9.73;3.08;;;15.80;99.90;;;;;;5051887;28;20044;-87
2021/07/29 05:21:29;;;;;;;10.15;2.80;;;15.90;99.90;;;;;;5050522;28;20045;-87
2021/07/29 05:23:57;;;;;;;9.63;2.63;;;16.00;99.90;;;;;;5034959;28;20041;-86
2021/07/29 05:26:25;;;;;;;9.98;2.42;;;16.10;99.90;;;;;;5037544;28;20029;-87
2021/07/29 05:28:52;;;;;;;9.35;2.53;;;16.10;99.90;;;;;;5049807;28;20043;-86
2021/07/29 05:31:20;;;;;;;5.20;2.22;;;16.20;99.90;;;;;;5051531;28;20029;-85
2021/07/29 05:33:50;;;;;;;5.93;2.88;;;16.20;99.90;;;;;;5036325;28;20034;-87
2021/07/29 05:36:19;;;;;;;8.10;2.72;;;16.30;99.90;;;;;;5051771;28;20037;-86
2021/07/29 05:38:51;;;;;;;8.45;2.45;;;16.30;99.90;;;;;;5052635;28;20045;-87
2021/07/29 05:41:21;;;;;;;9.23;2.45;;;16.40;99.90;;;;;;5053211;28;20041;-87
2021/07/29 05:43:50;;;;;;;7.95;2.25;;;16.40;99.90;;;;;;5029872;28;20547;-88
2021/07/29 05:46:17;;;;;;;5.97;2.30;;;16.50;99.90;;;;;;5059270;28;20083;-87
2021/07/29 05:48:45;;;;;;;6.72;1.85;;;16.50;99.90;;;;;;5055854;28;20037;-86
2021/07/29 05:51:13;;;;;;;11.80;2.90;;;16.60;99.90;;;;;;5054931;28;20045;-88
2021/07/29 05:53:41;;;;;;;8.07;3.00;;;16.60;99.90;;;;;;5038222;28;20108;-87
2021/07/29 05:56:07;;;;;;;9.68;3.78;;;16.60;99.90;;;;;;5047219;28;20029;-86
2021/07/29 05:58:33;;;;;;;9.05;2.38;;;16.60;99.90;;;;;;5040222;28;20056;-86
2021/07/29 06:01:08;;;;;;;8.50;2.78;;;16.60;99.90;;;;;;5040511;28;20087;-87
2021/07/29 06:03:34;;;;;;;11.70;3.17;;;16.70;99.90;;;;;;5032691;28;20115;-87
2021/07/29 06:06:03;;;;;;;11.55;2.88;;;16.70;99.90;;;;;;5051229;28;20112;-85
2021/07/29 06:08:30;;;;;;;12.07;2.70;;;16.70;99.90;;;;;;5043211;28;20044;-87
2021/07/29 06:10:57;;;;;;;10.15;2.72;;;16.70;99.90;;;;;;5043563;28;20044;-87
2021/07/29 06:13:26;;;;;;;10.93;3.10;;;16.80;99.90;;;;;;5036496;28;20048;-88
2021/07/29 06:15:54;;;;;;;9.23;2.70;;;16.80;99.90;;;;;;5030977;28;20037;-89
2021/07/29 06:18:24;;;;;;;7.28;2.45;;;16.70;99.90;;;;;;5037612;28;20032;-88
2021/07/29 06:20:51;;;;;;;9.82;3.28;;;16.70;99.90;;;;;;5040119;28;20053;-87
2021/07/29 06:23:18;;;;;;;10.27;2.90;;;16.70;99.90;;;;;;5031473;28;20547;-88
2021/07/29 06:25:48;;;;;;;6.90;3.10;;;16.70;99.90;;;;;;5048561;28;20415;-87
2021/07/29 06:28:16;;;;;;;9.82;2.92;;;16.60;99.90;;;;;;5038606;28;20088;-89
2021/07/29 06:30:43;;;;;;;7.45;2.35;;;16.60;99.90;;;;;;5041407;28;20057;-87
2021/07/29 06:33:10;;;;;;;7.05;2.67;;;16.60;99.90;;;;;;5027737;28;20211;-89
2021/07/29 06:35:37;;;;;;;12.07;3.40;;;16.60;99.90;;;;;;5042634;28;20099;-88
2021/07/29 06:38:03;;;;;;;12.18;2.70;;;16.70;99.90;;;;;;5018306;28;20120;-87
2021/07/29 06:40:36;;;;;;;9.27;2.88;;;16.70;99.90;;;;;;5042327;28;20389;-86
2021/07/29 06:43:02;;;;;;;12.30;3.40;;;16.70;99.90;;;;;;5032075;28;20036;-87
2021/07/29 06:45:28;;;;;;;9.10;3.25;;;16.80;99.90;;;;;;5051763;28;20082;-88
2021/07/29 06:47:56;;;;;;;9.98;3.65;;;16.80;99.90;;;;;;5034200;28;20040;-87
2021/07/29 06:50:23;;;;;;;14.43;3.58;;;16.90;99.90;;;;;;5043761;28;20079;-88
2021/07/29 06:52:50;;;;;;;14.73;3.75;;;17.00;99.90;;;;;;5021270;28;20784;-88
2021/07/29 06:55:17;;;;;;;17.20;3.85;;;17.00;99.90;;;;;;5044604;28;20623;-88
2021/07/29 06:57:44;;;;;;;11.43;3.15;;;17.10;99.90;;;;;;5052696;28;20051;-88
2021/07/29 07:00:12;;;;;;;12.77;4.18;;;17.20;99.90;;;;;;5049223;28;20393;-87
2021/07/29 07:02:39;;;;;;;15.20;4.05;;;17.30;99.90;;;;;;5042870;28;20044;-88
2021/07/29 07:05:06;;;;;;;13.88;3.60;;;17.50;99.90;;;;;;5031264;28;20047;-89
2021/07/29 07:07:32;;;;;;;8.38;3.00;;;17.50;99.90;;;;;;5054045;28;20127;-87
2021/07/29 07:09:59;;;;;;;12.90;3.50;;;17.60;99.90;;;;;;5023200;28;20044;-88
2021/07/29 07:12:26;;;;;;;9.40;3.10;;;17.60;99.90;;;;;;5062017;28;20081;-90
2021/07/29 07:14:54;;;;;;;12.05;3.00;;;17.80;99.90;;;;;;5047060;28;20103;-89
2021/07/29 07:17:23;;;;;;;8.50;3.30;;;17.90;99.90;;;;;;5037296;28;20045;-89
2021/07/29 07:19:51;;;;;;;7.70;2.65;;;18.00;99.90;;;;;;5054518;28;20052;-90
2021/07/29 07:22:18;;;;;;;11.38;3.35;;;18.00;99.90;;;;;;5049024;28;20103;-89
2021/07/29 07:24:44;;;;;;;9.07;2.75;;;18.00;99.90;;;;;;5044044;28;20052;-89
2021/07/29 07:27:13;;;;;;;10.98;2.92;;;18.00;99.90;;;;;;5044357;28;20033;-89
2021/07/29 07:29:46;;;;;;;11.38;2.80;;;18.10;99.90;;;;;;5021186;28;20129;-89
2021/07/29 07:32:15;;;;;;;9.53;2.33;;;18.10;99.90;;;;;;5024250;28;20072;-89
2021/07/29 07:34:48;;;;;;;10.30;3.08;;;18.20;99.90;;;;;;5055769;28;20284;-89
2021/07/29 07:37:19;;;;;;;11.43;2.85;;;18.20;99.90;;;;;;5054948;28;20048;-90
2021/07/29 07:39:51;;;;;;;7.35;2.45;;;18.30;99.90;;;;;;5053372;28;20041;-90
2021/07/29 07:42:18;;;;;;;8.95;2.38;;;18.20;99.90;;;;;;5053371;28;20044;-87
2021/07/29 07:44:48;;;;;;;12.63;3.00;;;18.20;99.90;;;;;;5050473;28;20056;-88
2021/07/29 07:47:14;;;;;;;12.38;3.20;;;18.20;99.90;;;;;;5050820;28;20037;-91
2021/07/29 07:49:40;;;;;;;11.20;2.80;;;18.20;99.90;;;;;;5065475;28;20040;-88
2021/07/29 07:52:11;;;;;;;8.63;2.55;;;18.30;99.90;;;;;;5059337;28;20033;-89
2021/07/29 07:54:39;;;;;;;7.65;2.65;;;18.50;99.90;;;;;;5037312;28;20044;-89
2021/07/29 07:57:09;;;;;;;11.10;3.85;;;18.60;99.90;;;;;;5058103;28;20033;-89
2021/07/29 07:59:40;;;;;;;9.20;3.05;;;18.70;99.90;;;;;;5063426;28;20036;-89
2021/07/29 08:02:11;;;;;;;8.82;3.05;;;18.60;99.90;;;;;;5037119;28;20534;-88
2021/07/29 08:04:41;;;;;;;5.05;2.20;;;18.50;99.90;;;;;;5036573;28;20124;-87
2021/07/29 08:07:12;;;;;;;9.00;2.42;;;18.50;99.90;;;;;;5045235;28;20043;-88
2021/07/29 08:09:49;;;;;;;7.03;2.42;;;18.60;99.90;;;;;;5042700;28;20458;-89
2021/07/29 08:12:23;;;;;;;8.68;2.67;;;18.60;99.90;;;;;;5051135;28;20024;-88
2021/07/29 08:14:52;;;;;;;7.88;2.85;;;18.60;99.90;;;;;;5038535;28;20033;-89
2021/07/29 08:17:18;;;;;;;11.20;2.63;;;18.60;99.90;;;;;;5036446;28;20025;-86
2021/07/29 08:19:46;;;;;;;10.68;3.00;;;18.50;99.90;;;;;;5040588;28;20053;-89
2021/07/29 08:22:13;;;;;;;8.70;2.88;;;18.50;99.90;;;;;;5050148;28;20038;-89
2021/07/29 08:24:40;;;;;;;11.00;2.92;;;18.60;99.90;;;;;;5041438;28;20045;-90
2021/07/29 08:27:07;;;;;;;9.85;3.00;;;18.70;99.90;;;;;;5025828;28;20040;-88
2021/07/29 08:29:35;;;;;;;10.77;2.30;;;18.90;99.90;;;;;;5058496;28;20038;-85
2021/07/29 08:32:10;;;;;;;8.60;2.17;;;19.10;99.90;;;;;;5035052;28;20041;-89
2021/07/29 08:34:37;;;;;;;8.20;2.58;;;19.30;99.90;;;;;;5033313;28;20033;-90
2021/07/29 08:37:06;;;;;;;11.98;2.67;;;19.30;99.90;;;;;;5032405;28;20075;-88
2021/07/29 08:39:38;;;;;;;6.88;2.20;;;19.30;99.90;;;;;;5058558;28;20041;-89
2021/07/29 08:42:08;;;;;;;12.90;2.58;;;19.20;99.90;;;;;;5034036;28;20045;-87
2021/07/29 08:44:35;;;;;;;5.75;1.83;;;19.20;99.90;;;;;;5032204;28;20048;-88
2021/07/29 08:47:07;;;;;;;10.23;2.40;;;19.20;99.90;;;;;;5051145;28;20029;-90
2021/07/29 08:49:40;;;;;;;9.17;2.57;;;19.40;99.90;;;;;;5041767;28;20041;-89
2021/07/29 08:52:08;;;;;;;8.82;2.78;;;19.60;99.90;;;;;;5045995;28;20038;-89
2021/07/29 08:54:38;;;;;;;5.55;1.83;;;19.70;99.90;;;;;;5048994;28;20048;-87
2021/07/29 08:57:05;;;;;;;8.63;2.50;;;19.70;99.90;;;;;;5049185;28;20037;-88
2021/07/29 08:59:33;;;;;;;7.03;1.88;;;19.80;99.90;;;;;;5039299;28;20079;-88
2021/07/29 09:02:00;;;;;;;11.32;2.90;;;19.80;99.90;;;;;;5026647;28;20095;-86
2021/07/29 09:04:26;;;;;;;7.75;2.20;;;19.90;99.90;;;;;;5032539;28;20038;-87
2021/07/29 09:07:02;;;;;;;7.65;1.92;;;19.90;99.90;;;;;;5026959;28;20485;-87
2021/07/29 09:09:46;;;;;;;9.05;2.38;;;19.90;99.90;;;;;;5039073;28;20117;-87
2021/07/29 09:12:31;;;;;;;5.55;2.17;;;20.00;99.90;;;;;;5032327;28;20034;-88
2021/07/29 09:15:19;;;;;;;7.55;2.13;;;20.00;99.90;;;;;;5048126;28;20512;-88
2021/07/29 09:17:50;;;;;;;6.35;1.90;;;20.10;99.90;;;;;;5033136;28;20485;-86
2021/07/29 09:20:19;;;;;;;6.72;2.40;;;20.20;99.90;;;;;;5029915;28;20404;-88
2021/07/29 09:22:52;;;;;;;6.97;1.73;;;20.20;99.90;;;;;;5028514;28;20474;-87
2021/07/29 09:25:22;;;;;;;9.10;2.47;;;20.10;99.90;;;;;;5022801;28;20600;-88
2021/07/29 09:27:50;;;;;;;6.28;1.98;;;20.10;99.90;;;;;;5002913;28;20029;-88
2021/07/29 09:30:33;;;;;;;8.07;2.08;;;20.20;99.50;;;;;;5029823;28;20140;-87
2021/07/29 09:32:59;;;;;;;9.10;2.00;;;20.20;99.70;;;;;;5023909;28;20026;-87
2021/07/29 09:35:35;;;;;;;7.75;1.70;;;20.20;99.70;;;;;;5013549;28;20113;-88
2021/07/29 09:38:18;;;;;;;10.43;2.05;;;20.40;99.70;;;;;;5029044;28;20062;-90
2021/07/29 09:40:45;;;;;;;6.63;1.55;;;20.60;98.50;;;;;;5001474;28;20041;-89
2021/07/29 09:43:18;;;;;;;10.50;1.90;;;21.10;97.90;;;;;;5043854;28;20392;-88
2021/07/29 09:45:51;;;;;;;7.03;1.83;;;21.80;97.30;;;;;;5031854;28;20441;-89
2021/07/29 09:48:21;;;;;;;10.50;2.45;;;22.50;96.30;;;;;;5033131;28;20064;-90
2021/07/29 09:50:49;;;;;;;10.35;2.10;;;22.70;94.90;;;;;;5027140;28;20061;-86
2021/07/29 09:53:17;;;;;;;8.38;2.25;;;22.30;94.20;;;;;;5023043;28;20686;-88
2021/07/29 09:55:43;;;;;;;11.15;2.03;;;22.30;95.00;;;;;;5024652;28;20040;-88
2021/07/29 09:58:09;;;;;;;7.93;1.67;;;23.00;93.70;;;;;;5015992;28;20501;-89
2021/07/29 10:00:36;;;;;;;8.35;2.00;;;23.20;93.90;;;;;;5027248;28;20038;-87
2021/07/29 10:03:07;;;;;;;8.48;2.00;;;23.10;93.70;;;;;;5020698;28;20026;-88
2021/07/29 10:06:07;;;;;;;6.72;1.95;;;23.60;93.90;;;;;;5015486;28;20046;-87
2021/07/29 10:08:41;;;;;;;11.93;2.22;;;23.50;93.20;;;;;;5029046;28;20064;-87
2021/07/29 10:11:11;;;;;;;;;;;22.70;93.50;;;;;;5029284;28;20118;-88
2021/07/29 10:13:39;;;;;;;8.95;2.00;;;22.10;94.40;;;;;;5000939;28;19910;-88
2021/07/29 10:16:11;;;;;;;7.40;2.38;;;22.10;94.30;;;;;;5025576;28;20452;-89
2021/07/29 10:18:53;;;;;;;8.07;2.10;;;22.20;94.40;;;;;;5028052;28;20038;-87
2021/07/29 10:21:28;;;;;;;6.40;1.90;;;22.90;92.90;;;;;;5040972;28;20041;-88
2021/07/29 10:23:58;;;;;;;6.03;1.95;;;23.50;92.60;;;;;;5051832;28;20049;-87
2021/07/29 10:26:28;;;;;;;9.60;2.03;;;23.90;91.80;;;;;;5048299;28;20052;-88
2021/07/29 10:29:24;;;;;;;8.63;2.30;;;23.30;92.30;;;;;;5045345;28;20038;-87
2021/07/29 10:31:59;;;;;;;8.63;2.10;;;22.40;93.50;;;;;;5027511;28;20040;-88
2021/07/29 10:34:36;;;;;;;10.23;2.30;;;21.20;95.00;;;;;;5054367;28;20047;-86
2021/07/29 10:37:04;;;;;;;7.15;2.22;;;20.70;95.40;;;;;;5047182;28;20056;-86
2021/07/29 10:39:32;;;;;;;8.40;1.90;;;20.70;95.40;;;;;;5028980;28;20037;-87
2021/07/29 10:42:01;;;;;;;6.43;1.98;;;21.00;95.10;;;;;;5055139;28;20037;-85
2021/07/29 10:44:36;;;;;;;7.13;1.80;;;21.10;95.10;;;;;;5038595;28;20103;-86
2021/07/29 10:47:07;;;;;;;7.70;1.98;;;21.00;95.10;;;;;;5038031;28;20038;-86
2021/07/29 10:49:58;;;;;;;7.60;2.50;;;20.60;97.80;;;;;;5042574;28;20074;-85
2021/07/29 10:52:26;;;;;;;8.85;2.53;;;19.40;99.90;;;;;;5063653;28;20044;-89
2021/07/29 10:54:52;;;;;;;6.50;2.55;;;18.40;99.90;;;;;;5036162;28;20029;-86
2021/07/29 10:57:19;;;;;;;9.02;2.80;;;17.80;99.90;;;;;;5054241;28;20041;-88
2021/07/29 10:59:45;;;;;;;7.03;2.30;;;17.50;99.90;;;;;;5045135;28;20037;-87
2021/07/29 11:02:21;;;;;;;10.27;3.22;;;17.40;99.90;;;;;;5037981;28;20083;-87
2021/07/29 11:04:55;;;;;;;9.27;3.10;;;17.30;99.90;;;;;;5019014;28;20040;-89
2021/07/29 11:07:22;;;;;;;8.93;3.70;;;17.80;99.90;;;;;;5060440;28;20091;-88
2021/07/29 11:09:59;;;;;;;10.18;3.58;;;18.70;99.90;;;;;;5054229;28;20420;-88
2021/07/29 11:12:26;;;;;;;10.05;3.55;;;19.90;99.90;;;;;;5038353;28;20040;-87
2021/07/29 11:15:05;;;;;;;10.10;3.40;;;21.20;99.90;;;;;;5052756;28;20033;-90
2021/07/29 11:17:33;;;;;;;9.95;3.40;;;21.80;99.90;;;;;;5056512;28;20052;-90
2021/07/29 11:20:01;;;;;;;7.72;3.05;;;21.60;99.90;;;;;;5037841;28;20443;-90
2021/07/29 11:22:27;;;;;;;7.18;2.80;;;21.30;99.90;;;;;;5023755;28;20135;-90
2021/07/29 11:24:54;;;;;;;6.53;2.95;;;21.10;99.90;;;;;;5055362;28;20155;-89
2021/07/29 11:27:43;;;;;;;9.32;2.97;;;20.90;99.90;;;;;;5045991;28;20125;-89
2021/07/29 11:30:12;;;;;;;13.45;3.05;;;20.70;99.90;;;;;;5048003;28;20504;-88
2021/07/29 11:32:44;;;;;;;9.80;3.00;;;20.80;99.90;;;;;;5054685;28;20492;-87
2021/07/29 11:35:20;;;;;;;7.40;2.40;;;20.80;99.90;;;;;;5051947;28;20123;-87
2021/07/29 11:37:47;;;;;;;7.03;2.40;;;20.60;99.90;;;;;;5049376;28;20056;-87
2021/07/29 11:40:23;;;;;;;7.78;2.53;;;20.40;99.90;;;;;;5022064;28;20064;-88
2021/07/29 11:42:50;;;;;;;11.32;2.80;;;20.10;99.90;;;;;;5054406;28;20037;-87
2021/07/29 11:45:29;;;;;;;6.70;2.33;;;19.90;99.90;;;;;;5055137;28;20032;-89
2021/07/29 11:47:57;;;;;;;8.90;2.53;;;19.70;99.90;;;;;;5056772;28;20032;-89
2021/07/29 11:50:37;;;;;;;8.20;2.67;;;19.70;99.90;;;;;;5056831;28;20037;-87
2021/07/29 11:53:03;;;;;;;7.22;2.55;;;20.00;99.90;;;;;;5054876;28;20033;-87
2021/07/29 11:55:38;;;;;;;7.32;2.35;;;20.10;99.90;;;;;;5052427;28;20047;-88
2021/07/29 11:58:16;;;;;;;7.50;2.25;;;20.30;99.90;;;;;;5045260;28;20119;-89
2021/07/29 12:00:54;;;;;;;8.35;2.53;;;21.40;99.90;;;;;;5039631;28;20037;-89
2021/07/29 12:03:39;;;;;;;8.00;2.25;;;22.50;99.90;;;;;;5045357;28;20048;-89
2021/07/29 12:06:05;;;;;;;6.85;2.22;;;23.40;99.90;;;;;;5050149;28;20090;-89
2021/07/29 12:08:40;;;;;;;8.00;2.58;;;23.80;99.90;;;;;;5020906;28;20045;-86
2021/07/29 12:11:09;;;;;;;7.57;2.53;;;24.20;99.90;;;;;;5048165;28;20025;-88
2021/07/29 12:13:42;;;;;;;7.32;2.90;;;24.50;99.90;;;;;;5041682;28;20044;-88
2021/07/29 12:16:08;;;;;;;7.38;2.33;;;24.90;99.70;;;;;;5055061;28;20496;-87
2021/07/29 12:18:38;;;;;;;7.75;2.50;;;25.10;99.30;;;;;;5053574;28;20048;-87
2021/07/29 12:21:08;;;;;;;5.18;1.98;;;25.00;98.10;;;;;;5043309;28;20042;-87
2021/07/29 12:23:35;;;;;;;9.02;2.20;;;25.10;99.70;;;;;;5036555;28;20041;-88
2021/07/29 12:26:19;;;;;;;7.38;2.50;;;25.40;97.10;;;;;;5028818;28;20465;-87
2021/07/29 12:28:45;;;;;;;7.28;2.45;;;25.50;95.80;;;;;;5035199;28;20068;-87
2021/07/29 12:31:23;;;;;;;5.53;1.85;;;25.10;95.40;;;;;;5025382;28;20405;-86
2021/07/29 12:33:55;;;;;;;7.13;2.05;;;25.10;96.90;;;;;;5049105;28;20050;-87
2021/07/29 12:36:25;;;;;;;5.28;1.63;;;25.20;96.20;;;;;;5049820;28;20041;-88
2021/07/29 12:39:03;;;;;;;7.30;2.10;;;24.80;95.90;;;;;;5044886;28;20080;-88
2021/07/29 12:41:32;;;;;;;5.65;2.10;;;24.20;96.30;;;;;;5040974;28;20396;-88
2021/07/29 12:44:20;;;;;;;8.23;2.20;;;23.50;97.00;;;;;;5040974;28;20037;-87
2021/07/29 12:46:49;;;;;;;6.85;2.20;;;23.10;98.00;;;;;;5041599;28;20064;-88
2021/07/29 12:49:18;;;;;;;9.55;2.50;;;22.80;97.50;;;;;;5036140;28;20026;-87
2021/07/29 12:51:51;;;;;;;9.52;2.63;;;22.30;97.50;;;;;;5037157;28;20040;-89
2021/07/29 12:54:19;;;;;;;8.52;2.20;;;22.00;98.70;;;;;;5050534;28;20362;-88
2021/07/29 12:57:07;;;;;;;9.48;2.88;;;21.80;98.60;;;;;;5027956;28;20092;-88